sensor_id;sensor_type;location;lat;lon;timestamp;temperature;humidity
11838;DHT22;5978;51.020;6.764;2023-07-16T00:00:28;20.00;99.90
11838;DHT22;5978;51.020;6.764;2023-07-16T00:02:54;19.90;99.90
11838;DHT22;5978;51.020;6.764;2023-07-16T00:05:19;19.90;99.90
11838;DHT22;5978;51.020;6.764;2023-07-16T00:07:45;19.90;99.90
11838;DHT22;5978;51.020;6.764;2023-07-16T00:10:10;19.90;99.90
11838;DHT22;5978;51.020;6.764;2023-07-16T00:12:36;19.80;99.90
11838;DHT22;5978;51.020;6.764;2023-07-16T00:15:02;19.70;99.90
11838;DHT22;5978;51.020;6.764;2023-07-16T00:17:27;19.70;99.90
11838;DHT22;5978;51.020;6.764;2023-07-16T00:19:53;19.60;99.90
11838;DHT22;5978;51.020;6.764;2023-07-16T00:22:18;19.50;99.90
11838;DHT22;5978;51.020;6.764;2023-07-16T00:24:44;19.50;99.90
11838;DHT22;5978;51.020;6.764;2023-07-16T00:27:09;19.50;99.90
11838;DHT22;5978;51.020;6.764;2023-07-16T00:29:35;19.40;99.90
11838;DHT22;5978;51.020;6.764;2023-07-16T00:32:00;19.30;99.90
11838;DHT22;5978;51.020;6.764;2023-07-16T00:34:26;19.30;99.90
11838;DHT22;5978;51.020;6.764;2023-07-16T00:36:52;19.30;99.90
11838;DHT22;5978;51.020;6.764;2023-07-16T00:39:17;19.20;99.90
11838;DHT22;5978;51.020;6.764;2023-07-16T00:41:43;19.20;99.90
11838;DHT22;5978;51.020;6.764;2023-07-16T00:44:08;19.20;99.90
11838;DHT22;5978;51.020;6.764;2023-07-16T00:46:34;19.10;99.90
11838;DHT22;5978;51.020;6.764;2023-07-16T00:49:01;19.10;99.90
11838;DHT22;5978;51.020;6.764;2023-07-16T00:51:27;19.10;99.90
11838;DHT22;5978;51.020;6.764;2023-07-16T00:53:53;19.00;99.90
11838;DHT22;5978;51.020;6.764;2023-07-16T00:56:19;19.00;99.90
11838;DHT22;5978;51.020;6.764;2023-07-16T00:58:44;19.00;99.90
11838;DHT22;5978;51.020;6.764;2023-07-16T01:01:10;18.90;99.90
11838;DHT22;5978;51.020;6.764;2023-07-16T01:03:36;18.80;99.90
11838;DHT22;5978;51.020;6.764;2023-07-16T01:06:14;18.80;99.90
11838;DHT22;5978;51.020;6.764;2023-07-16T01:08:57;18.80;99.90
11838;DHT22;5978;51.020;6.764;2023-07-16T01:11:23;18.70;99.90
11838;DHT22;5978;51.020;6.764;2023-07-16T01:13:50;18.70;99.90
11838;DHT22;5978;51.020;6.764;2023-07-16T01:16:24;18.70;99.90
11838;DHT22;5978;51.020;6.764;2023-07-16T01:18:50;18.70;99.90
11838;DHT22;5978;51.020;6.764;2023-07-16T01:21:19;18.70;99.90
11838;DHT22;5978;51.020;6.764;2023-07-16T01:24:04;18.70;99.90
11838;DHT22;5978;51.020;6.764;2023-07-16T01:29:18;18.70;99.90
11838;DHT22;5978;51.020;6.764;2023-07-16T01:31:45;18.60;99.90
11838;DHT22;5978;51.020;6.764;2023-07-16T01:34:11;18.60;99.90
11838;DHT22;5978;51.020;6.764;2023-07-16T01:36:39;18.50;99.90
11838;DHT22;5978;51.020;6.764;2023-07-16T01:39:05;18.50;99.90
11838;DHT22;5978;51.020;6.764;2023-07-16T01:41:31;18.50;99.90
11838;DHT22;5978;51.020;6.764;2023-07-16T01:43:56;18.50;99.90
11838;DHT22;5978;51.020;6.764;2023-07-16T01:46:22;18.40;99.90
11838;DHT22;5978;51.020;6.764;2023-07-16T01:48:48;18.40;99.90
11838;DHT22;5978;51.020;6.764;2023-07-16T01:51:13;18.40;99.90
11838;DHT22;5978;51.020;6.764;2023-07-16T01:53:40;18.40;99.90
11838;DHT22;5978;51.020;6.764;2023-07-16T01:56:05;18.40;99.90
11838;DHT22;5978;51.020;6.764;2023-07-16T01:58:31;18.40;99.90
11838;DHT22;5978;51.020;6.764;2023-07-16T02:00:57;18.40;99.90
11838;DHT22;5978;51.020;6.764;2023-07-16T02:03:22;18.40;99.90
11838;DHT22;5978;51.020;6.764;2023-07-16T02:05:48;18.40;99.90
11838;DHT22;5978;51.020;6.764;2023-07-16T02:08:14;18.40;99.90
11838;DHT22;5978;51.020;6.764;2023-07-16T02:10:39;18.30;99.90
11838;DHT22;5978;51.020;6.764;2023-07-16T02:13:05;18.30;99.90
11838;DHT22;5978;51.020;6.764;2023-07-16T02:15:30;18.30;99.90
11838;DHT22;5978;51.020;6.764;2023-07-16T02:17:56;18.30;99.90
11838;DHT22;5978;51.020;6.764;2023-07-16T02:20:22;18.30;99.90
11838;DHT22;5978;51.020;6.764;2023-07-16T02:22:47;18.30;99.90
11838;DHT22;5978;51.020;6.764;2023-07-16T02:25:13;18.30;99.90
11838;DHT22;5978;51.020;6.764;2023-07-16T02:27:39;18.20;99.90
11838;DHT22;5978;51.020;6.764;2023-07-16T02:30:05;18.30;99.90
11838;DHT22;5978;51.020;6.764;2023-07-16T02:32:32;18.20;99.90
11838;DHT22;5978;51.020;6.764;2023-07-16T02:34:58;18.20;99.90
11838;DHT22;5978;51.020;6.764;2023-07-16T02:37:23;18.20;99.90
11838;DHT22;5978;51.020;6.764;2023-07-16T02:39:49;18.20;99.90
11838;DHT22;5978;51.020;6.764;2023-07-16T02:42:14;18.20;99.90
11838;DHT22;5978;51.020;6.764;2023-07-16T02:44:40;18.20;99.90
11838;DHT22;5978;51.020;6.764;2023-07-16T02:47:10;18.10;99.90
11838;DHT22;5978;51.020;6.764;2023-07-16T02:49:36;18.10;99.90
11838;DHT22;5978;51.020;6.764;2023-07-16T02:52:02;18.10;99.90
11838;DHT22;5978;51.020;6.764;2023-07-16T02:54:28;18.00;99.90
11838;DHT22;5978;51.020;6.764;2023-07-16T02:56:53;18.00;99.90
11838;DHT22;5978;51.020;6.764;2023-07-16T02:59:19;18.00;99.90
11838;DHT22;5978;51.020;6.764;2023-07-16T03:01:44;18.00;99.90
11838;DHT22;5978;51.020;6.764;2023-07-16T03:04:10;18.00;99.90
11838;DHT22;5978;51.020;6.764;2023-07-16T03:06:35;17.90;99.90
11838;DHT22;5978;51.020;6.764;2023-07-16T03:09:01;17.90;99.90
11838;DHT22;5978;51.020;6.764;2023-07-16T03:11:26;17.90;99.90
11838;DHT22;5978;51.020;6.764;2023-07-16T03:13:52;17.90;99.90
11838;DHT22;5978;51.020;6.764;2023-07-16T03:16:17;17.80;99.90
11838;DHT22;5978;51.020;6.764;2023-07-16T03:18:44;17.80;99.90
11838;DHT22;5978;51.020;6.764;2023-07-16T03:21:11;17.80;99.90
11838;DHT22;5978;51.020;6.764;2023-07-16T03:23:36;17.80;99.90
11838;DHT22;5978;51.020;6.764;2023-07-16T03:26:02;17.80;99.90
11838;DHT22;5978;51.020;6.764;2023-07-16T03:28:27;17.70;99.90
11838;DHT22;5978;51.020;6.764;2023-07-16T03:30:53;17.70;99.90
11838;DHT22;5978;51.020;6.764;2023-07-16T03:33:19;17.70;99.90
11838;DHT22;5978;51.020;6.764;2023-07-16T03:35:45;17.70;99.90
11838;DHT22;5978;51.020;6.764;2023-07-16T03:38:12;17.60;99.90
11838;DHT22;5978;51.020;6.764;2023-07-16T03:40:38;17.70;99.90
11838;DHT22;5978;51.020;6.764;2023-07-16T03:43:03;17.70;99.90
11838;DHT22;5978;51.020;6.764;2023-07-16T03:45:29;17.60;99.90
11838;DHT22;5978;51.020;6.764;2023-07-16T03:47:55;17.60;99.90
11838;DHT22;5978;51.020;6.764;2023-07-16T03:50:20;17.50;99.90
11838;DHT22;5978;51.020;6.764;2023-07-16T03:52:46;17.50;99.90
11838;DHT22;5978;51.020;6.764;2023-07-16T03:55:12;17.60;99.90
11838;DHT22;5978;51.020;6.764;2023-07-16T03:57:38;17.60;99.90
11838;DHT22;5978;51.020;6.764;2023-07-16T04:00:04;17.50;99.90
11838;DHT22;5978;51.020;6.764;2023-07-16T04:02:36;17.50;99.90
11838;DHT22;5978;51.020;6.764;2023-07-16T04:05:02;17.50;99.90
11838;DHT22;5978;51.020;6.764;2023-07-16T04:07:28;17.60;99.90
11838;DHT22;5978;51.020;6.764;2023-07-16T04:09:54;17.50;99.90
11838;DHT22;5978;51.020;6.764;2023-07-16T04:12:19;17.60;99.90
11838;DHT22;5978;51.020;6.764;2023-07-16T04:14:46;17.50;99.90
11838;DHT22;5978;51.020;6.764;2023-07-16T04:17:11;17.60;99.90
11838;DHT22;5978;51.020;6.764;2023-07-16T04:19:37;17.60;99.90
11838;DHT22;5978;51.020;6.764;2023-07-16T04:22:03;17.60;99.90
11838;DHT22;5978;51.020;6.764;2023-07-16T04:24:29;17.60;99.90
11838;DHT22;5978;51.020;6.764;2023-07-16T04:26:55;17.60;99.90
11838;DHT22;5978;51.020;6.764;2023-07-16T04:29:20;17.60;99.90
11838;DHT22;5978;51.020;6.764;2023-07-16T04:31:46;17.60;99.90
11838;DHT22;5978;51.020;6.764;2023-07-16T04:34:12;17.60;99.90
11838;DHT22;5978;51.020;6.764;2023-07-16T04:36:38;17.60;99.90
11838;DHT22;5978;51.020;6.764;2023-07-16T04:39:04;17.60;99.90
11838;DHT22;5978;51.020;6.764;2023-07-16T04:41:30;17.70;99.90
11838;DHT22;5978;51.020;6.764;2023-07-16T04:43:56;17.70;99.90
11838;DHT22;5978;51.020;6.764;2023-07-16T04:46:21;17.80;99.90
11838;DHT22;5978;51.020;6.764;2023-07-16T04:48:47;17.80;99.90
11838;DHT22;5978;51.020;6.764;2023-07-16T04:51:12;17.80;99.90
11838;DHT22;5978;51.020;6.764;2023-07-16T04:53:38;17.90;99.90
11838;DHT22;5978;51.020;6.764;2023-07-16T04:56:03;18.00;99.90
11838;DHT22;5978;51.020;6.764;2023-07-16T04:58:30;18.00;99.90
11838;DHT22;5978;51.020;6.764;2023-07-16T05:00:55;18.10;99.90
11838;DHT22;5978;51.020;6.764;2023-07-16T05:03:21;18.00;99.90
11838;DHT22;5978;51.020;6.764;2023-07-16T05:05:47;18.10;99.90
11838;DHT22;5978;51.020;6.764;2023-07-16T05:08:12;18.20;99.90
11838;DHT22;5978;51.020;6.764;2023-07-16T05:10:38;18.20;99.90
11838;DHT22;5978;51.020;6.764;2023-07-16T05:13:03;18.20;99.90
11838;DHT22;5978;51.020;6.764;2023-07-16T05:15:29;18.30;99.90
11838;DHT22;5978;51.020;6.764;2023-07-16T05:17:55;18.40;99.90
11838;DHT22;5978;51.020;6.764;2023-07-16T05:20:23;18.40;99.90
11838;DHT22;5978;51.020;6.764;2023-07-16T05:22:48;18.50;99.90
11838;DHT22;5978;51.020;6.764;2023-07-16T05:25:14;18.50;99.90
11838;DHT22;5978;51.020;6.764;2023-07-16T05:27:40;18.50;99.90
11838;DHT22;5978;51.020;6.764;2023-07-16T05:30:06;18.50;99.90
11838;DHT22;5978;51.020;6.764;2023-07-16T05:32:31;18.60;99.90
11838;DHT22;5978;51.020;6.764;2023-07-16T05:34:57;18.60;99.90
11838;DHT22;5978;51.020;6.764;2023-07-16T05:37:22;18.70;99.90
11838;DHT22;5978;51.020;6.764;2023-07-16T05:39:48;18.70;99.90
11838;DHT22;5978;51.020;6.764;2023-07-16T05:42:14;18.70;99.90
11838;DHT22;5978;51.020;6.764;2023-07-16T05:44:39;18.80;99.90
11838;DHT22;5978;51.020;6.764;2023-07-16T05:47:05;18.70;99.90
11838;DHT22;5978;51.020;6.764;2023-07-16T05:49:31;18.80;99.90
11838;DHT22;5978;51.020;6.764;2023-07-16T05:51:57;18.80;99.90
11838;DHT22;5978;51.020;6.764;2023-07-16T05:54:23;18.90;99.90
11838;DHT22;5978;51.020;6.764;2023-07-16T05:56:48;18.90;99.90
11838;DHT22;5978;51.020;6.764;2023-07-16T05:59:14;19.00;99.90
11838;DHT22;5978;51.020;6.764;2023-07-16T06:01:39;19.00;99.90
11838;DHT22;5978;51.020;6.764;2023-07-16T06:04:05;19.10;99.90
11838;DHT22;5978;51.020;6.764;2023-07-16T06:06:31;19.20;99.90
11838;DHT22;5978;51.020;6.764;2023-07-16T06:08:56;19.20;99.90
11838;DHT22;5978;51.020;6.764;2023-07-16T06:11:22;19.30;99.90
11838;DHT22;5978;51.020;6.764;2023-07-16T06:13:47;19.30;99.90
11838;DHT22;5978;51.020;6.764;2023-07-16T06:16:13;19.40;99.90
11838;DHT22;5978;51.020;6.764;2023-07-16T06:18:39;19.40;99.90
11838;DHT22;5978;51.020;6.764;2023-07-16T06:21:04;19.60;99.90
11838;DHT22;5978;51.020;6.764;2023-07-16T06:23:30;19.60;99.90
11838;DHT22;5978;51.020;6.764;2023-07-16T06:25:55;19.60;99.90
11838;DHT22;5978;51.020;6.764;2023-07-16T06:28:21;19.60;99.90
11838;DHT22;5978;51.020;6.764;2023-07-16T06:30:47;19.70;99.90
11838;DHT22;5978;51.020;6.764;2023-07-16T06:33:12;19.70;99.90
11838;DHT22;5978;51.020;6.764;2023-07-16T06:35:38;19.70;99.90
11838;DHT22;5978;51.020;6.764;2023-07-16T06:38:04;19.90;99.90
11838;DHT22;5978;51.020;6.764;2023-07-16T06:40:29;19.90;99.90
11838;DHT22;5978;51.020;6.764;2023-07-16T06:42:56;19.90;99.90
11838;DHT22;5978;51.020;6.764;2023-07-16T06:45:21;19.70;99.90
11838;DHT22;5978;51.020;6.764;2023-07-16T06:47:48;19.90;99.90
11838;DHT22;5978;51.020;6.764;2023-07-16T06:50:13;19.90;99.90
11838;DHT22;5978;51.020;6.764;2023-07-16T06:52:39;20.00;99.90
11838;DHT22;5978;51.020;6.764;2023-07-16T06:55:05;20.10;99.90
11838;DHT22;5978;51.020;6.764;2023-07-16T06:57:30;20.30;99.90
11838;DHT22;5978;51.020;6.764;2023-07-16T06:59:56;20.30;99.90
11838;DHT22;5978;51.020;6.764;2023-07-16T07:02:21;20.40;99.90
11838;DHT22;5978;51.020;6.764;2023-07-16T07:04:47;20.50;99.90
11838;DHT22;5978;51.020;6.764;2023-07-16T07:07:12;20.50;99.90
11838;DHT22;5978;51.020;6.764;2023-07-16T07:09:38;20.60;99.90
11838;DHT22;5978;51.020;6.764;2023-07-16T07:12:04;20.50;99.90
11838;DHT22;5978;51.020;6.764;2023-07-16T07:14:30;20.50;99.90
11838;DHT22;5978;51.020;6.764;2023-07-16T07:16:56;20.50;99.90
11838;DHT22;5978;51.020;6.764;2023-07-16T07:19:21;20.50;99.90
11838;DHT22;5978;51.020;6.764;2023-07-16T07:21:47;20.60;99.90
11838;DHT22;5978;51.020;6.764;2023-07-16T07:24:12;20.60;99.90
11838;DHT22;5978;51.020;6.764;2023-07-16T07:26:38;20.50;99.90
11838;DHT22;5978;51.020;6.764;2023-07-16T07:29:05;20.80;99.90
11838;DHT22;5978;51.020;6.764;2023-07-16T07:31:30;21.00;99.90
11838;DHT22;5978;51.020;6.764;2023-07-16T07:33:56;21.20;99.90
11838;DHT22;5978;51.020;6.764;2023-07-16T07:36:23;21.30;99.90
11838;DHT22;5978;51.020;6.764;2023-07-16T07:38:48;21.30;99.90
11838;DHT22;5978;51.020;6.764;2023-07-16T07:41:14;21.50;99.90
11838;DHT22;5978;51.020;6.764;2023-07-16T07:43:39;21.80;99.90
11838;DHT22;5978;51.020;6.764;2023-07-16T07:46:05;21.90;99.90
11838;DHT22;5978;51.020;6.764;2023-07-16T07:48:31;22.00;99.90
11838;DHT22;5978;51.020;6.764;2023-07-16T07:50:57;21.80;99.90
11838;DHT22;5978;51.020;6.764;2023-07-16T07:53:22;21.80;99.90
11838;DHT22;5978;51.020;6.764;2023-07-16T07:55:48;21.70;99.90
11838;DHT22;5978;51.020;6.764;2023-07-16T07:58:14;21.80;99.90
11838;DHT22;5978;51.020;6.764;2023-07-16T08:00:39;21.70;99.90
11838;DHT22;5978;51.020;6.764;2023-07-16T08:03:05;21.80;99.90
11838;DHT22;5978;51.020;6.764;2023-07-16T08:05:31;22.00;99.90
11838;DHT22;5978;51.020;6.764;2023-07-16T08:07:56;22.10;99.90
11838;DHT22;5978;51.020;6.764;2023-07-16T08:10:22;22.20;99.90
11838;DHT22;5978;51.020;6.764;2023-07-16T08:12:48;22.40;99.90
11838;DHT22;5978;51.020;6.764;2023-07-16T08:15:14;22.30;99.90
11838;DHT22;5978;51.020;6.764;2023-07-16T08:17:44;22.40;99.90
11838;DHT22;5978;51.020;6.764;2023-07-16T08:20:10;22.40;99.90
11838;DHT22;5978;51.020;6.764;2023-07-16T08:22:36;22.40;99.90
11838;DHT22;5978;51.020;6.764;2023-07-16T08:25:02;22.40;99.90
11838;DHT22;5978;51.020;6.764;2023-07-16T08:27:29;22.50;99.90
11838;DHT22;5978;51.020;6.764;2023-07-16T08:29:54;22.60;99.90
11838;DHT22;5978;51.020;6.764;2023-07-16T08:32:20;22.50;99.90
11838;DHT22;5978;51.020;6.764;2023-07-16T08:34:46;22.60;99.90
11838;DHT22;5978;51.020;6.764;2023-07-16T08:37:13;22.70;99.90
11838;DHT22;5978;51.020;6.764;2023-07-16T08:39:38;22.60;99.90
11838;DHT22;5978;51.020;6.764;2023-07-16T08:42:04;22.60;99.90
11838;DHT22;5978;51.020;6.764;2023-07-16T08:44:30;22.80;99.90
11838;DHT22;5978;51.020;6.764;2023-07-16T08:46:56;23.10;99.90
11838;DHT22;5978;51.020;6.764;2023-07-16T08:49:22;23.30;99.70
11838;DHT22;5978;51.020;6.764;2023-07-16T08:51:49;23.20;98.30
11838;DHT22;5978;51.020;6.764;2023-07-16T08:54:15;23.40;99.90
11838;DHT22;5978;51.020;6.764;2023-07-16T08:56:45;23.60;98.00
11838;DHT22;5978;51.020;6.764;2023-07-16T08:59:11;23.50;97.40
11838;DHT22;5978;51.020;6.764;2023-07-16T09:01:37;23.70;97.00
11838;DHT22;5978;51.020;6.764;2023-07-16T09:04:03;23.50;94.80
11838;DHT22;5978;51.020;6.764;2023-07-16T09:06:29;23.50;96.40
11838;DHT22;5978;51.020;6.764;2023-07-16T09:08:55;23.60;96.30
11838;DHT22;5978;51.020;6.764;2023-07-16T09:11:21;23.40;97.10
11838;DHT22;5978;51.020;6.764;2023-07-16T09:13:50;23.40;96.70
11838;DHT22;5978;51.020;6.764;2023-07-16T09:16:18;23.50;97.50
11838;DHT22;5978;51.020;6.764;2023-07-16T09:18:44;23.80;95.70
11838;DHT22;5978;51.020;6.764;2023-07-16T09:21:10;23.80;96.60
11838;DHT22;5978;51.020;6.764;2023-07-16T09:23:36;24.00;96.50
11838;DHT22;5978;51.020;6.764;2023-07-16T09:26:02;24.00;95.70
11838;DHT22;5978;51.020;6.764;2023-07-16T09:28:31;24.30;95.10
11838;DHT22;5978;51.020;6.764;2023-07-16T09:31:06;24.30;95.20
11838;DHT22;5978;51.020;6.764;2023-07-16T09:33:32;24.40;94.40
11838;DHT22;5978;51.020;6.764;2023-07-16T09:35:58;24.60;95.30
11838;DHT22;5978;51.020;6.764;2023-07-16T09:38:24;24.50;91.30
11838;DHT22;5978;51.020;6.764;2023-07-16T09:40:51;24.30;91.90
11838;DHT22;5978;51.020;6.764;2023-07-16T09:43:17;24.50;92.30
11838;DHT22;5978;51.020;6.764;2023-07-16T09:45:43;24.60;91.40
11838;DHT22;5978;51.020;6.764;2023-07-16T09:48:08;24.40;90.50
11838;DHT22;5978;51.020;6.764;2023-07-16T09:50:35;24.70;92.90
11838;DHT22;5978;51.020;6.764;2023-07-16T09:53:01;24.70;90.60
11838;DHT22;5978;51.020;6.764;2023-07-16T09:55:31;24.70;90.40
11838;DHT22;5978;51.020;6.764;2023-07-16T09:58:00;24.40;89.40
11838;DHT22;5978;51.020;6.764;2023-07-16T10:00:27;24.60;89.70
11838;DHT22;5978;51.020;6.764;2023-07-16T10:02:54;24.70;89.90
11838;DHT22;5978;51.020;6.764;2023-07-16T10:05:28;24.50;87.50
11838;DHT22;5978;51.020;6.764;2023-07-16T10:08:00;24.60;90.80
11838;DHT22;5978;51.020;6.764;2023-07-16T10:10:54;24.80;91.00
11838;DHT22;5978;51.020;6.764;2023-07-16T10:13:23;25.10;90.40
11838;DHT22;5978;51.020;6.764;2023-07-16T10:15:54;25.30;85.30
11838;DHT22;5978;51.020;6.764;2023-07-16T10:18:27;25.40;89.10
11838;DHT22;5978;51.020;6.764;2023-07-16T10:21:03;25.80;82.90
11838;DHT22;5978;51.020;6.764;2023-07-16T10:23:43;25.80;81.90
11838;DHT22;5978;51.020;6.764;2023-07-16T10:26:11;25.50;83.90
11838;DHT22;5978;51.020;6.764;2023-07-16T10:28:37;25.50;81.40
11838;DHT22;5978;51.020;6.764;2023-07-16T10:31:03;25.60;80.40
11838;DHT22;5978;51.020;6.764;2023-07-16T10:33:29;25.50;76.90
11838;DHT22;5978;51.020;6.764;2023-07-16T10:35:57;25.60;79.00
11838;DHT22;5978;51.020;6.764;2023-07-16T10:38:24;25.90;80.80
11838;DHT22;5978;51.020;6.764;2023-07-16T10:40:49;26.20;82.00
11838;DHT22;5978;51.020;6.764;2023-07-16T10:43:15;26.50;78.70
11838;DHT22;5978;51.020;6.764;2023-07-16T10:45:41;26.30;74.20
11838;DHT22;5978;51.020;6.764;2023-07-16T10:48:07;25.90;76.90
11838;DHT22;5978;51.020;6.764;2023-07-16T10:50:33;25.60;76.40
11838;DHT22;5978;51.020;6.764;2023-07-16T10:53:02;25.30;75.90
11838;DHT22;5978;51.020;6.764;2023-07-16T10:55:29;25.30;78.10
11838;DHT22;5978;51.020;6.764;2023-07-16T10:57:56;25.60;76.30
11838;DHT22;5978;51.020;6.764;2023-07-16T11:00:22;26.00;79.40
11838;DHT22;5978;51.020;6.764;2023-07-16T11:02:50;26.30;73.90
11838;DHT22;5978;51.020;6.764;2023-07-16T11:05:16;26.50;73.70
11838;DHT22;5978;51.020;6.764;2023-07-16T11:07:48;26.90;75.70
11838;DHT22;5978;51.020;6.764;2023-07-16T11:10:18;26.80;71.60
11838;DHT22;5978;51.020;6.764;2023-07-16T11:12:44;26.80;72.50
11838;DHT22;5978;51.020;6.764;2023-07-16T11:15:10;26.70;70.40
11838;DHT22;5978;51.020;6.764;2023-07-16T11:17:39;26.70;71.10
11838;DHT22;5978;51.020;6.764;2023-07-16T11:20:07;27.00;70.40
11838;DHT22;5978;51.020;6.764;2023-07-16T11:22:37;27.50;71.10
11838;DHT22;5978;51.020;6.764;2023-07-16T11:25:03;27.90;67.00
11838;DHT22;5978;51.020;6.764;2023-07-16T11:27:31;27.30;66.10
11838;DHT22;5978;51.020;6.764;2023-07-16T11:29:58;27.50;66.50
11838;DHT22;5978;51.020;6.764;2023-07-16T11:32:46;28.00;69.30
11838;DHT22;5978;51.020;6.764;2023-07-16T11:35:18;29.10;66.70
11838;DHT22;5978;51.020;6.764;2023-07-16T11:37:46;29.50;61.90
11838;DHT22;5978;51.020;6.764;2023-07-16T11:40:20;29.00;62.70
11838;DHT22;5978;51.020;6.764;2023-07-16T11:42:46;28.30;60.30
11838;DHT22;5978;51.020;6.764;2023-07-16T11:45:20;27.80;60.90
11838;DHT22;5978;51.020;6.764;2023-07-16T11:47:46;27.90;61.70
11838;DHT22;5978;51.020;6.764;2023-07-16T11:50:12;28.30;63.50
11838;DHT22;5978;51.020;6.764;2023-07-16T11:52:38;28.60;61.60
11838;DHT22;5978;51.020;6.764;2023-07-16T11:55:04;27.50;60.90
11838;DHT22;5978;51.020;6.764;2023-07-16T11:57:30;27.80;61.70
11838;DHT22;5978;51.020;6.764;2023-07-16T11:59:56;27.80;61.50
11838;DHT22;5978;51.020;6.764;2023-07-16T12:02:22;27.80;62.90
11838;DHT22;5978;51.020;6.764;2023-07-16T12:04:48;28.30;60.70
11838;DHT22;5978;51.020;6.764;2023-07-16T12:07:14;27.60;59.90
11838;DHT22;5978;51.020;6.764;2023-07-16T12:09:40;27.60;63.60
11838;DHT22;5978;51.020;6.764;2023-07-16T12:12:06;28.90;62.20
11838;DHT22;5978;51.020;6.764;2023-07-16T12:14:32;29.80;60.00
11838;DHT22;5978;51.020;6.764;2023-07-16T12:16:58;30.10;59.60
11838;DHT22;5978;51.020;6.764;2023-07-16T12:19:24;29.70;57.20
11838;DHT22;5978;51.020;6.764;2023-07-16T12:21:50;29.50;58.20
11838;DHT22;5978;51.020;6.764;2023-07-16T12:24:16;30.10;57.90
11838;DHT22;5978;51.020;6.764;2023-07-16T12:26:41;30.10;57.00
11838;DHT22;5978;51.020;6.764;2023-07-16T12:29:07;29.60;57.00
11838;DHT22;5978;51.020;6.764;2023-07-16T12:31:33;29.50;58.50
11838;DHT22;5978;51.020;6.764;2023-07-16T12:33:59;29.10;59.60
11838;DHT22;5978;51.020;6.764;2023-07-16T12:36:27;29.50;59.60
11838;DHT22;5978;51.020;6.764;2023-07-16T12:38:52;30.90;58.30
11838;DHT22;5978;51.020;6.764;2023-07-16T12:41:18;31.50;57.60
11838;DHT22;5978;51.020;6.764;2023-07-16T12:43:43;31.40;54.20
11838;DHT22;5978;51.020;6.764;2023-07-16T12:46:09;32.00;54.40
11838;DHT22;5978;51.020;6.764;2023-07-16T12:48:35;31.70;53.50
11838;DHT22;5978;51.020;6.764;2023-07-16T12:51:00;30.70;53.70
11838;DHT22;5978;51.020;6.764;2023-07-16T12:53:26;31.60;56.00
11838;DHT22;5978;51.020;6.764;2023-07-16T12:55:52;32.90;55.10
11838;DHT22;5978;51.020;6.764;2023-07-16T12:58:18;33.50;52.70
11838;DHT22;5978;51.020;6.764;2023-07-16T13:00:44;34.30;52.00
11838;DHT22;5978;51.020;6.764;2023-07-16T13:03:10;34.40;50.30
11838;DHT22;5978;51.020;6.764;2023-07-16T13:05:40;32.90;51.70
11838;DHT22;5978;51.020;6.764;2023-07-16T13:08:05;33.50;51.30
11838;DHT22;5978;51.020;6.764;2023-07-16T13:10:31;32.50;50.20
11838;DHT22;5978;51.020;6.764;2023-07-16T13:12:56;32.70;50.70
11838;DHT22;5978;51.020;6.764;2023-07-16T13:15:22;32.30;48.80
11838;DHT22;5978;51.020;6.764;2023-07-16T13:17:48;31.40;49.50
11838;DHT22;5978;51.020;6.764;2023-07-16T13:20:14;31.80;49.70
11838;DHT22;5978;51.020;6.764;2023-07-16T13:22:39;31.70;49.80
11838;DHT22;5978;51.020;6.764;2023-07-16T13:25:05;31.00;52.20
11838;DHT22;5978;51.020;6.764;2023-07-16T13:27:31;31.40;52.50
11838;DHT22;5978;51.020;6.764;2023-07-16T13:29:57;31.50;52.50
11838;DHT22;5978;51.020;6.764;2023-07-16T13:32:22;30.10;51.90
11838;DHT22;5978;51.020;6.764;2023-07-16T13:34:48;31.30;53.00
11838;DHT22;5978;51.020;6.764;2023-07-16T13:37:13;31.20;51.00
11838;DHT22;5978;51.020;6.764;2023-07-16T13:39:39;31.80;51.30
11838;DHT22;5978;51.020;6.764;2023-07-16T13:42:05;32.00;50.60
11838;DHT22;5978;51.020;6.764;2023-07-16T13:44:32;31.80;51.10
11838;DHT22;5978;51.020;6.764;2023-07-16T13:46:58;31.60;50.80
11838;DHT22;5978;51.020;6.764;2023-07-16T13:49:23;31.80;50.90
11838;DHT22;5978;51.020;6.764;2023-07-16T13:51:49;32.20;49.80
11838;DHT22;5978;51.020;6.764;2023-07-16T13:54:14;30.90;49.60
11838;DHT22;5978;51.020;6.764;2023-07-16T13:56:40;30.40;50.90
11838;DHT22;5978;51.020;6.764;2023-07-16T13:59:06;29.70;51.70
11838;DHT22;5978;51.020;6.764;2023-07-16T14:01:31;30.40;51.70
11838;DHT22;5978;51.020;6.764;2023-07-16T14:03:57;30.50;51.30
11838;DHT22;5978;51.020;6.764;2023-07-16T14:06:22;30.30;51.60
11838;DHT22;5978;51.020;6.764;2023-07-16T14:08:48;29.70;52.40
11838;DHT22;5978;51.020;6.764;2023-07-16T14:11:15;29.00;52.40
11838;DHT22;5978;51.020;6.764;2023-07-16T14:13:43;28.40;53.30
11838;DHT22;5978;51.020;6.764;2023-07-16T14:16:09;28.80;54.00
11838;DHT22;5978;51.020;6.764;2023-07-16T14:18:34;28.70;53.90
11838;DHT22;5978;51.020;6.764;2023-07-16T14:21:00;28.40;54.50
11838;DHT22;5978;51.020;6.764;2023-07-16T14:23:28;28.30;55.10
11838;DHT22;5978;51.020;6.764;2023-07-16T14:25:53;28.50;55.80
11838;DHT22;5978;51.020;6.764;2023-07-16T14:28:19;29.10;55.00
11838;DHT22;5978;51.020;6.764;2023-07-16T14:30:44;29.00;54.80
11838;DHT22;5978;51.020;6.764;2023-07-16T14:33:10;29.40;54.50
11838;DHT22;5978;51.020;6.764;2023-07-16T14:35:35;29.60;53.90
11838;DHT22;5978;51.020;6.764;2023-07-16T14:38:01;29.50;53.60
11838;DHT22;5978;51.020;6.764;2023-07-16T14:40:26;29.80;53.80
11838;DHT22;5978;51.020;6.764;2023-07-16T14:42:52;29.80;54.60
11838;DHT22;5978;51.020;6.764;2023-07-16T14:45:18;29.30;54.20
11838;DHT22;5978;51.020;6.764;2023-07-16T14:47:43;28.20;54.10
11838;DHT22;5978;51.020;6.764;2023-07-16T14:50:09;27.60;55.80
11838;DHT22;5978;51.020;6.764;2023-07-16T14:52:35;27.20;56.80
11838;DHT22;5978;51.020;6.764;2023-07-16T14:55:02;26.70;57.50
11838;DHT22;5978;51.020;6.764;2023-07-16T14:57:29;26.60;58.30
11838;DHT22;5978;51.020;6.764;2023-07-16T14:59:55;26.80;59.00
11838;DHT22;5978;51.020;6.764;2023-07-16T15:02:21;26.60;58.70
11838;DHT22;5978;51.020;6.764;2023-07-16T15:04:46;26.40;59.60
11838;DHT22;5978;51.020;6.764;2023-07-16T15:07:12;26.50;60.30
11838;DHT22;5978;51.020;6.764;2023-07-16T15:09:37;26.80;60.00
11838;DHT22;5978;51.020;6.764;2023-07-16T15:12:05;27.30;59.70
11838;DHT22;5978;51.020;6.764;2023-07-16T15:14:30;27.90;61.10
11838;DHT22;5978;51.020;6.764;2023-07-16T15:16:56;28.20;60.60
11838;DHT22;5978;51.020;6.764;2023-07-16T15:19:22;28.10;58.40
11838;DHT22;5978;51.020;6.764;2023-07-16T15:21:47;27.50;58.00
11838;DHT22;5978;51.020;6.764;2023-07-16T15:24:13;27.10;58.10
11838;DHT22;5978;51.020;6.764;2023-07-16T15:26:38;27.40;59.40
11838;DHT22;5978;51.020;6.764;2023-07-16T15:29:04;28.00;58.70
11838;DHT22;5978;51.020;6.764;2023-07-16T15:31:29;28.30;58.20
11838;DHT22;5978;51.020;6.764;2023-07-16T15:33:56;27.80;57.80
11838;DHT22;5978;51.020;6.764;2023-07-16T15:36:22;27.30;58.50
11838;DHT22;5978;51.020;6.764;2023-07-16T15:38:48;27.00;58.80
11838;DHT22;5978;51.020;6.764;2023-07-16T15:41:15;26.60;59.80